sensor_id;sensor_type;location;lat;lon;timestamp;pressure;altitude;pressure_sealevel;temperature;humidity
51321;BME280;38732;49.556;6.286;2023-02-19T00:01:17;100265.25;;;9.92;100.00
51321;BME280;38732;49.556;6.286;2023-02-19T00:03:52;100261.50;;;9.21;100.00
51321;BME280;38732;49.556;6.286;2023-02-19T00:06:22;100258.84;;;9.18;100.00
51321;BME280;38732;49.556;6.286;2023-02-19T00:08:51;100267.16;;;9.03;100.00
51321;BME280;38732;49.556;6.286;2023-02-19T00:11:21;100272.50;;;9.13;100.00
51321;BME280;38732;49.556;6.286;2023-02-19T00:13:52;100278.94;;;9.86;100.00
51321;BME280;38732;49.556;6.286;2023-02-19T00:16:23;100271.59;;;10.75;100.00
51321;BME280;38732;49.556;6.286;2023-02-19T00:18:52;100286.59;;;9.33;100.00
51321;BME280;38732;49.556;6.286;2023-02-19T00:21:21;100286.22;;;9.60;100.00
51321;BME280;38732;49.556;6.286;2023-02-19T00:23:52;100283.56;;;10.07;100.00
51321;BME280;38732;49.556;6.286;2023-02-19T00:26:21;100280.59;;;9.81;100.00
51321;BME280;38732;49.556;6.286;2023-02-19T00:28:51;100227.91;;;9.67;100.00
51321;BME280;38732;49.556;6.286;2023-02-19T00:33:49;100259.00;;;8.80;100.00
51321;BME280;38732;49.556;6.286;2023-02-19T00:36:19;100257.13;;;8.72;100.00
51321;BME280;38732;49.556;6.286;2023-02-19T00:38:48;100247.16;;;8.90;100.00
51321;BME280;38732;49.556;6.286;2023-02-19T00:41:17;100260.34;;;8.63;100.00
51321;BME280;38732;49.556;6.286;2023-02-19T00:48:59;100257.50;;;8.49;100.00
51321;BME280;38732;49.556;6.286;2023-02-19T00:51:30;100253.44;;;8.59;100.00
51321;BME280;38732;49.556;6.286;2023-02-19T00:53:59;100254.69;;;8.79;100.00
51321;BME280;38732;49.556;6.286;2023-02-19T00:56:27;100244.06;;;8.62;100.00
51321;BME280;38732;49.556;6.286;2023-02-19T00:58:56;100263.06;;;8.69;100.00
51321;BME280;38732;49.556;6.286;2023-02-19T01:01:24;100252.81;;;8.72;100.00
51321;BME280;38732;49.556;6.286;2023-02-19T01:03:52;100248.13;;;8.94;100.00
51321;BME280;38732;49.556;6.286;2023-02-19T01:06:21;100243.69;;;8.44;100.00
51321;BME280;38732;49.556;6.286;2023-02-19T01:08:49;100236.97;;;8.52;100.00
51321;BME280;38732;49.556;6.286;2023-02-19T01:11:17;100249.50;;;8.78;100.00
51321;BME280;38732;49.556;6.286;2023-02-19T01:13:46;100243.53;;;8.79;100.00
51321;BME280;38732;49.556;6.286;2023-02-19T01:18:44;100242.94;;;9.41;100.00
51321;BME280;38732;49.556;6.286;2023-02-19T01:21:16;100237.44;;;8.75;100.00
51321;BME280;38732;49.556;6.286;2023-02-19T01:23:45;100242.19;;;8.55;100.00
51321;BME280;38732;49.556;6.286;2023-02-19T01:26:16;100230.06;;;8.50;100.00
51321;BME280;38732;49.556;6.286;2023-02-19T01:28:45;100234.19;;;8.84;100.00
51321;BME280;38732;49.556;6.286;2023-02-19T01:31:20;100228.50;;;8.58;100.00
51321;BME280;38732;49.556;6.286;2023-02-19T01:33:51;100225.50;;;8.79;100.00
51321;BME280;38732;49.556;6.286;2023-02-19T01:36:19;100221.69;;;9.56;100.00
51321;BME280;38732;49.556;6.286;2023-02-19T01:38:48;100219.69;;;9.38;100.00
51321;BME280;38732;49.556;6.286;2023-02-19T01:41:19;100220.88;;;9.57;100.00
51321;BME280;38732;49.556;6.286;2023-02-19T01:44:01;100225.56;;;9.31;100.00
51321;BME280;38732;49.556;6.286;2023-02-19T01:46:31;100225.63;;;8.85;100.00
51321;BME280;38732;49.556;6.286;2023-02-19T01:49:05;100214.72;;;8.56;100.00
51321;BME280;38732;49.556;6.286;2023-02-19T01:51:39;100197.09;;;8.74;100.00
51321;BME280;38732;49.556;6.286;2023-02-19T01:54:10;100200.34;;;8.66;100.00
51321;BME280;38732;49.556;6.286;2023-02-19T01:56:41;100197.19;;;9.27;100.00
51321;BME280;38732;49.556;6.286;2023-02-19T01:59:10;100196.69;;;9.50;100.00
51321;BME280;38732;49.556;6.286;2023-02-19T02:01:40;100194.00;;;8.92;100.00
51321;BME280;38732;49.556;6.286;2023-02-19T02:04:09;100201.66;;;8.89;100.00
51321;BME280;38732;49.556;6.286;2023-02-19T02:06:46;100185.13;;;8.76;100.00
51321;BME280;38732;49.556;6.286;2023-02-19T02:09:17;100184.34;;;9.31;100.00
51321;BME280;38732;49.556;6.286;2023-02-19T02:11:49;100189.97;;;9.08;100.00
51321;BME280;38732;49.556;6.286;2023-02-19T02:14:21;100182.69;;;9.34;100.00
51321;BME280;38732;49.556;6.286;2023-02-19T02:25:42;100198.25;;;9.40;100.00
51321;BME280;38732;49.556;6.286;2023-02-19T02:28:44;100183.16;;;10.24;100.00
51321;BME280;38732;49.556;6.286;2023-02-19T02:31:27;100188.13;;;8.99;100.00
51321;BME280;38732;49.556;6.286;2023-02-19T02:34:04;100183.41;;;9.80;100.00
51321;BME280;38732;49.556;6.286;2023-02-19T02:36:40;100187.75;;;9.28;100.00
51321;BME280;38732;49.556;6.286;2023-02-19T02:39:13;100180.38;;;9.49;100.00
51321;BME280;38732;49.556;6.286;2023-02-19T02:41:43;100191.47;;;8.95;100.00
51321;BME280;38732;49.556;6.286;2023-02-19T02:44:12;100178.97;;;9.17;100.00
51321;BME280;38732;49.556;6.286;2023-02-19T02:46:43;100182.88;;;8.95;100.00
51321;BME280;38732;49.556;6.286;2023-02-19T02:49:18;100183.00;;;9.02;100.00
51321;BME280;38732;49.556;6.286;2023-02-19T02:51:51;100176.78;;;8.90;100.00
51321;BME280;38732;49.556;6.286;2023-02-19T02:54:29;100173.69;;;8.62;100.00
51321;BME280;38732;49.556;6.286;2023-02-19T02:56:58;100173.84;;;8.70;100.00
51321;BME280;38732;49.556;6.286;2023-02-19T02:59:31;100164.03;;;8.97;100.00
51321;BME280;38732;49.556;6.286;2023-02-19T03:02:10;100168.16;;;9.38;100.00
51321;BME280;38732;49.556;6.286;2023-02-19T03:08:26;100181.25;;;9.00;100.00
51321;BME280;38732;49.556;6.286;2023-02-19T03:11:02;100169.19;;;8.52;100.00
51321;BME280;38732;49.556;6.286;2023-02-19T03:13:33;100171.63;;;8.90;100.00
51321;BME280;38732;49.556;6.286;2023-02-19T03:16:09;100172.06;;;8.67;100.00
51321;BME280;38732;49.556;6.286;2023-02-19T03:18:42;100164.19;;;8.59;100.00
51321;BME280;38732;49.556;6.286;2023-02-19T03:21:14;100166.69;;;8.55;100.00
51321;BME280;38732;49.556;6.286;2023-02-19T03:23:44;100179.22;;;8.83;100.00
51321;BME280;38732;49.556;6.286;2023-02-19T03:26:16;100169.81;;;9.34;100.00
51321;BME280;38732;49.556;6.286;2023-02-19T03:28:47;100178.66;;;8.53;100.00
51321;BME280;38732;49.556;6.286;2023-02-19T03:31:18;100179.28;;;9.91;100.00
51321;BME280;38732;49.556;6.286;2023-02-19T03:33:54;100179.44;;;8.49;100.00
51321;BME280;38732;49.556;6.286;2023-02-19T03:36:27;100175.28;;;9.56;100.00
51321;BME280;38732;49.556;6.286;2023-02-19T03:39:02;100174.19;;;9.40;100.00
51321;BME280;38732;49.556;6.286;2023-02-19T03:44:27;100168.28;;;8.95;100.00
51321;BME280;38732;49.556;6.286;2023-02-19T03:47:21;100189.88;;;9.03;100.00
51321;BME280;38732;49.556;6.286;2023-02-19T03:50:14;100193.75;;;9.27;100.00
51321;BME280;38732;49.556;6.286;2023-02-19T03:53:26;100187.13;;;10.01;100.00
51321;BME280;38732;49.556;6.286;2023-02-19T03:56:25;100189.19;;;10.96;100.00
51321;BME280;38732;49.556;6.286;2023-02-19T03:58:59;100199.72;;;11.18;100.00
51321;BME280;38732;49.556;6.286;2023-02-19T04:04:21;100205.16;;;10.62;100.00
51321;BME280;38732;49.556;6.286;2023-02-19T04:06:55;100211.19;;;10.62;100.00
51321;BME280;38732;49.556;6.286;2023-02-19T04:09:29;100222.59;;;10.15;100.00
51321;BME280;38732;49.556;6.286;2023-02-19T04:12:02;100215.94;;;10.28;100.00
51321;BME280;38732;49.556;6.286;2023-02-19T04:14:45;100208.44;;;10.47;100.00
51321;BME280;38732;49.556;6.286;2023-02-19T04:17:21;100211.28;;;11.60;100.00
51321;BME280;38732;49.556;6.286;2023-02-19T04:19:52;100221.66;;;10.09;100.00
51321;BME280;38732;49.556;6.286;2023-02-19T04:22:22;100223.25;;;9.99;100.00
51321;BME280;38732;49.556;6.286;2023-02-19T04:24:52;100208.25;;;10.33;100.00
51321;BME280;38732;49.556;6.286;2023-02-19T04:27:21;100208.66;;;10.03;100.00
51321;BME280;38732;49.556;6.286;2023-02-19T04:29:49;100203.50;;;10.68;100.00
51321;BME280;38732;49.556;6.286;2023-02-19T04:32:17;100196.88;;;10.22;100.00
51321;BME280;38732;49.556;6.286;2023-02-19T04:34:46;100196.34;;;11.23;100.00
51321;BME280;38732;49.556;6.286;2023-02-19T04:37:14;100196.34;;;11.23;100.00
51321;BME280;38732;49.556;6.286;2023-02-19T04:39:42;100199.56;;;10.28;100.00
51321;BME280;38732;49.556;6.286;2023-02-19T04:42:10;100201.84;;;10.75;100.00
51321;BME280;38732;49.556;6.286;2023-02-19T04:44:39;100222.69;;;9.12;100.00
51321;BME280;38732;49.556;6.286;2023-02-19T04:47:07;100225.50;;;9.78;100.00
51321;BME280;38732;49.556;6.286;2023-02-19T04:49:35;100242.88;;;9.89;100.00
51321;BME280;38732;49.556;6.286;2023-02-19T04:52:03;100238.03;;;10.11;100.00
51321;BME280;38732;49.556;6.286;2023-02-19T04:54:31;100236.56;;;10.97;100.00
51321;BME280;38732;49.556;6.286;2023-02-19T04:56:59;100251.19;;;9.73;100.00
51321;BME280;38732;49.556;6.286;2023-02-19T04:59:28;100238.72;;;11.42;100.00
51321;BME280;38732;49.556;6.286;2023-02-19T05:01:56;100242.94;;;11.33;100.00
51321;BME280;38732;49.556;6.286;2023-02-19T05:04:25;100251.56;;;10.55;100.00
51321;BME280;38732;49.556;6.286;2023-02-19T05:06:53;100259.41;;;10.65;100.00
51321;BME280;38732;49.556;6.286;2023-02-19T05:09:21;100263.03;;;10.77;100.00
51321;BME280;38732;49.556;6.286;2023-02-19T05:11:49;100266.13;;;11.25;100.00
51321;BME280;38732;49.556;6.286;2023-02-19T05:14:18;100257.34;;;11.06;100.00
51321;BME280;38732;49.556;6.286;2023-02-19T05:16:46;100257.47;;;11.18;100.00
51321;BME280;38732;49.556;6.286;2023-02-19T05:19:14;100266.75;;;11.94;100.00
51321;BME280;38732;49.556;6.286;2023-02-19T05:21:42;100273.59;;;10.97;100.00
51321;BME280;38732;49.556;6.286;2023-02-19T05:24:11;100273.13;;;11.34;100.00
51321;BME280;38732;49.556;6.286;2023-02-19T05:26:39;100279.66;;;11.86;100.00
51321;BME280;38732;49.556;6.286;2023-02-19T05:29:07;100269.94;;;11.65;100.00
51321;BME280;38732;49.556;6.286;2023-02-19T05:31:35;100275.63;;;11.26;100.00
51321;BME280;38732;49.556;6.286;2023-02-19T05:34:03;100278.97;;;11.16;100.00
51321;BME280;38732;49.556;6.286;2023-02-19T05:36:31;100277.84;;;11.81;100.00
51321;BME280;38732;49.556;6.286;2023-02-19T05:39:00;100290.28;;;10.54;100.00
51321;BME280;38732;49.556;6.286;2023-02-19T05:41:28;100284.16;;;10.47;100.00
51321;BME280;38732;49.556;6.286;2023-02-19T05:43:57;100276.50;;;11.28;100.00
51321;BME280;38732;49.556;6.286;2023-02-19T05:46:27;100291.13;;;9.97;100.00
51321;BME280;38732;49.556;6.286;2023-02-19T05:48:56;100280.34;;;10.88;100.00
51321;BME280;38732;49.556;6.286;2023-02-19T05:51:26;100301.66;;;9.57;100.00
51321;BME280;38732;49.556;6.286;2023-02-19T05:53:55;100288.97;;;10.26;100.00
51321;BME280;38732;49.556;6.286;2023-02-19T05:59:03;100286.41;;;10.26;100.00
51321;BME280;38732;49.556;6.286;2023-02-19T06:01:34;100280.22;;;9.60;100.00
51321;BME280;38732;49.556;6.286;2023-02-19T06:04:02;100289.38;;;8.97;100.00
51321;BME280;38732;49.556;6.286;2023-02-19T06:06:31;100291.00;;;8.93;100.00
51321;BME280;38732;49.556;6.286;2023-02-19T06:08:59;100298.66;;;8.89;100.00
51321;BME280;38732;49.556;6.286;2023-02-19T06:11:28;100297.28;;;9.52;100.00
51321;BME280;38732;49.556;6.286;2023-02-19T06:13:57;100293.34;;;9.74;100.00
51321;BME280;38732;49.556;6.286;2023-02-19T06:16:25;100300.09;;;10.19;100.00
51321;BME280;38732;49.556;6.286;2023-02-19T06:18:53;100309.97;;;9.92;100.00
51321;BME280;38732;49.556;6.286;2023-02-19T06:21:22;100307.22;;;9.32;100.00
51321;BME280;38732;49.556;6.286;2023-02-19T06:23:51;100306.19;;;10.24;100.00
51321;BME280;38732;49.556;6.286;2023-02-19T06:26:22;100308.63;;;10.74;100.00
51321;BME280;38732;49.556;6.286;2023-02-19T06:28:52;100314.44;;;10.01;100.00
51321;BME280;38732;49.556;6.286;2023-02-19T06:31:21;100324.00;;;10.10;100.00
51321;BME280;38732;49.556;6.286;2023-02-19T06:33:49;100336.47;;;9.82;100.00
51321;BME280;38732;49.556;6.286;2023-02-19T06:36:19;100333.56;;;10.72;100.00
51321;BME280;38732;49.556;6.286;2023-02-19T06:38:48;100334.16;;;11.19;100.00
51321;BME280;38732;49.556;6.286;2023-02-19T06:41:16;100331.22;;;11.70;99.43
51321;BME280;38732;49.556;6.286;2023-02-19T06:43:45;100334.72;;;11.75;97.55
51321;BME280;38732;49.556;6.286;2023-02-19T06:46:13;100337.69;;;11.26;100.00
51321;BME280;38732;49.556;6.286;2023-02-19T06:48:43;100343.28;;;10.91;100.00
51321;BME280;38732;49.556;6.286;2023-02-19T06:51:13;100343.72;;;11.30;100.00
51321;BME280;38732;49.556;6.286;2023-02-19T06:53:41;100341.84;;;12.00;94.55
51321;BME280;38732;49.556;6.286;2023-02-19T06:56:23;100344.97;;;11.64;96.03
51321;BME280;38732;49.556;6.286;2023-02-19T06:58:58;100350.97;;;11.63;95.26
51321;BME280;38732;49.556;6.286;2023-02-19T07:01:29;100360.47;;;11.65;93.96
51321;BME280;38732;49.556;6.286;2023-02-19T07:03:57;100368.88;;;11.43;100.00
51321;BME280;38732;49.556;6.286;2023-02-19T07:06:26;100363.41;;;11.96;94.60
51321;BME280;38732;49.556;6.286;2023-02-19T07:08:56;100376.41;;;10.57;100.00
51321;BME280;38732;49.556;6.286;2023-02-19T07:11:25;100375.41;;;11.12;100.00
51321;BME280;38732;49.556;6.286;2023-02-19T07:13:57;100382.31;;;10.49;100.00
51321;BME280;38732;49.556;6.286;2023-02-19T07:16:26;100390.25;;;10.09;100.00
51321;BME280;38732;49.556;6.286;2023-02-19T07:18:56;100393.97;;;10.83;100.00
51321;BME280;38732;49.556;6.286;2023-02-19T07:21:25;100385.69;;;11.07;100.00
51321;BME280;38732;49.556;6.286;2023-02-19T07:23:54;100399.19;;;10.28;100.00
51321;BME280;38732;49.556;6.286;2023-02-19T07:26:23;100401.25;;;10.49;100.00
51321;BME280;38732;49.556;6.286;2023-02-19T07:28:52;100405.72;;;9.62;100.00
51321;BME280;38732;49.556;6.286;2023-02-19T07:31:22;100407.09;;;9.90;100.00
51321;BME280;38732;49.556;6.286;2023-02-19T07:33:51;100401.22;;;10.48;100.00
51321;BME280;38732;49.556;6.286;2023-02-19T07:36:21;100402.97;;;11.11;100.00
51321;BME280;38732;49.556;6.286;2023-02-19T07:38:53;100400.34;;;11.07;100.00
51321;BME280;38732;49.556;6.286;2023-02-19T07:41:23;100414.50;;;10.21;100.00
51321;BME280;38732;49.556;6.286;2023-02-19T07:43:52;100406.16;;;11.62;98.83
51321;BME280;38732;49.556;6.286;2023-02-19T07:46:22;100415.19;;;10.10;100.00
51321;BME280;38732;49.556;6.286;2023-02-19T07:48:50;100415.41;;;10.21;100.00
51321;BME280;38732;49.556;6.286;2023-02-19T07:51:19;100406.25;;;10.40;100.00
51321;BME280;38732;49.556;6.286;2023-02-19T07:53:48;100415.00;;;9.10;100.00
51321;BME280;38732;49.556;6.286;2023-02-19T07:56:18;100409.53;;;9.81;100.00
51321;BME280;38732;49.556;6.286;2023-02-19T07:58:46;100417.53;;;9.49;100.00
51321;BME280;38732;49.556;6.286;2023-02-19T08:01:22;100420.94;;;9.96;100.00
51321;BME280;38732;49.556;6.286;2023-02-19T08:03:50;100419.84;;;10.28;100.00
51321;BME280;38732;49.556;6.286;2023-02-19T08:06:19;100408.31;;;11.25;100.00
51321;BME280;38732;49.556;6.286;2023-02-19T08:08:47;100416.09;;;10.64;100.00
51321;BME280;38732;49.556;6.286;2023-02-19T08:11:15;100412.97;;;9.82;100.00
51321;BME280;38732;49.556;6.286;2023-02-19T08:13:43;100413.66;;;9.71;100.00
51321;BME280;38732;49.556;6.286;2023-02-19T08:16:13;100406.88;;;9.77;100.00
51321;BME280;38732;49.556;6.286;2023-02-19T08:18:41;100424.84;;;10.74;100.00
51321;BME280;38732;49.556;6.286;2023-02-19T08:21:09;100421.25;;;9.65;100.00
51321;BME280;38732;49.556;6.286;2023-02-19T08:23:38;100421.81;;;11.01;100.00
51321;BME280;38732;49.556;6.286;2023-02-19T08:26:06;100426.75;;;10.29;100.00
51321;BME280;38732;49.556;6.286;2023-02-19T08:28:35;100430.81;;;10.18;100.00
51321;BME280;38732;49.556;6.286;2023-02-19T08:31:04;100436.03;;;10.21;100.00
51321;BME280;38732;49.556;6.286;2023-02-19T08:33:33;100432.66;;;10.24;100.00
51321;BME280;38732;49.556;6.286;2023-02-19T08:36:04;100442.06;;;10.22;100.00
51321;BME280;38732;49.556;6.286;2023-02-19T08:38:34;100445.56;;;10.77;100.00
51321;BME280;38732;49.556;6.286;2023-02-19T08:41:08;100447.78;;;10.54;100.00
51321;BME280;38732;49.556;6.286;2023-02-19T08:43:36;100452.03;;;10.50;100.00
51321;BME280;38732;49.556;6.286;2023-02-19T08:46:05;100447.91;;;10.63;100.00
51321;BME280;38732;49.556;6.286;2023-02-19T08:48:34;100447.50;;;11.56;96.70
51321;BME280;38732;49.556;6.286;2023-02-19T08:51:05;100455.50;;;11.10;100.00
51321;BME280;38732;49.556;6.286;2023-02-19T08:53:35;100452.84;;;11.73;96.55
51321;BME280;38732;49.556;6.286;2023-02-19T08:56:05;100457.19;;;10.49;100.00
51321;BME280;38732;49.556;6.286;2023-02-19T08:58:34;100469.09;;;10.97;100.00
51321;BME280;38732;49.556;6.286;2023-02-19T09:01:06;100472.69;;;11.08;100.00
51321;BME280;38732;49.556;6.286;2023-02-19T09:03:35;100473.00;;;11.98;96.89
51321;BME280;38732;49.556;6.286;2023-02-19T09:06:03;100479.13;;;11.36;98.92
51321;BME280;38732;49.556;6.286;2023-02-19T09:08:32;100474.13;;;12.26;95.74
51321;BME280;38732;49.556;6.286;2023-02-19T09:11:01;100490.81;;;11.10;100.00
51321;BME280;38732;49.556;6.286;2023-02-19T09:13:29;100492.00;;;11.32;100.00
51321;BME280;38732;49.556;6.286;2023-02-19T09:15:58;100484.53;;;12.33;94.13
51321;BME280;38732;49.556;6.286;2023-02-19T09:18:26;100491.38;;;12.24;90.53
51321;BME280;38732;49.556;6.286;2023-02-19T09:20:58;100493.50;;;12.71;90.16
51321;BME280;38732;49.556;6.286;2023-02-19T09:23:27;100503.22;;;11.35;98.86
51321;BME280;38732;49.556;6.286;2023-02-19T09:25:57;100501.16;;;12.56;90.00
51321;BME280;38732;49.556;6.286;2023-02-19T09:28:26;100512.13;;;13.37;84.39
51321;BME280;38732;49.556;6.286;2023-02-19T09:30:54;100518.53;;;12.69;86.13
51321;BME280;38732;49.556;6.286;2023-02-19T09:33:23;100520.19;;;12.60;85.55
51321;BME280;38732;49.556;6.286;2023-02-19T09:35:51;100511.34;;;12.38;86.26
51321;BME280;38732;49.556;6.286;2023-02-19T09:38:19;100518.84;;;13.12;84.83
51321;BME280;38732;49.556;6.286;2023-02-19T09:40:47;100517.63;;;12.64;87.84
51321;BME280;38732;49.556;6.286;2023-02-19T09:43:19;100521.50;;;13.22;84.23
51321;BME280;38732;49.556;6.286;2023-02-19T09:46:00;100529.06;;;11.99;89.11
51321;BME280;38732;49.556;6.286;2023-02-19T09:48:29;100536.78;;;11.93;89.81
51321;BME280;38732;49.556;6.286;2023-02-19T09:50:59;100532.97;;;13.51;81.87
51321;BME280;38732;49.556;6.286;2023-02-19T09:53:36;100537.38;;;13.74;79.04
51321;BME280;38732;49.556;6.286;2023-02-19T09:56:07;100533.13;;;12.57;86.18
51321;BME280;38732;49.556;6.286;2023-02-19T09:58:46;100539.72;;;12.27;90.22
51321;BME280;38732;49.556;6.286;2023-02-19T10:01:16;100533.25;;;12.75;85.73
51321;BME280;38732;49.556;6.286;2023-02-19T10:03:47;100544.38;;;11.82;91.95
51321;BME280;38732;49.556;6.286;2023-02-19T10:06:20;100541.63;;;12.45;90.26
51321;BME280;38732;49.556;6.286;2023-02-19T10:08:54;100535.91;;;12.83;87.99
51321;BME280;38732;49.556;6.286;2023-02-19T10:11:24;100544.50;;;12.77;84.89
51321;BME280;38732;49.556;6.286;2023-02-19T10:14:05;100545.81;;;12.29;88.31
51321;BME280;38732;49.556;6.286;2023-02-19T10:16:38;100542.78;;;12.76;86.16
51321;BME280;38732;49.556;6.286;2023-02-19T10:19:14;100547.00;;;13.93;79.88
51321;BME280;38732;49.556;6.286;2023-02-19T10:21:43;100548.53;;;12.44;86.30
51321;BME280;38732;49.556;6.286;2023-02-19T10:24:24;100553.13;;;12.73;85.60
51321;BME280;38732;49.556;6.286;2023-02-19T10:26:54;100553.81;;;12.54;83.92
51321;BME280;38732;49.556;6.286;2023-02-19T10:29:22;100551.38;;;12.69;87.04
51321;BME280;38732;49.556;6.286;2023-02-19T10:32:20;100541.13;;;12.84;86.48
51321;BME280;38732;49.556;6.286;2023-02-19T10:35:10;100542.38;;;12.32;88.43
51321;BME280;38732;49.556;6.286;2023-02-19T10:37:44;100541.03;;;12.72;85.26
51321;BME280;38732;49.556;6.286;2023-02-19T10:40:18;100542.09;;;12.04;87.60
51321;BME280;38732;49.556;6.286;2023-02-19T10:42:53;100537.75;;;12.04;88.25
51321;BME280;38732;49.556;6.286;2023-02-19T10:45:24;100540.25;;;11.95;90.82
51321;BME280;38732;49.556;6.286;2023-02-19T10:47:56;100535.91;;;12.83;86.54
51321;BME280;38732;49.556;6.286;2023-02-19T10:50:28;100550.28;;;12.44;87.96
51321;BME280;38732;49.556;6.286;2023-02-19T10:52:59;100533.53;;;13.09;82.54
51321;BME280;38732;49.556;6.286;2023-02-19T10:58:19;100553.19;;;12.81;82.94
51321;BME280;38732;49.556;6.286;2023-02-19T11:01:21;100550.56;;;12.78;84.47
51321;BME280;38732;49.556;6.286;2023-02-19T11:03:52;100552.94;;;12.55;86.56
51321;BME280;38732;49.556;6.286;2023-02-19T11:06:39;100562.59;;;11.90;91.44
51321;BME280;38732;49.556;6.286;2023-02-19T11:11:53;100585.69;;;11.75;90.39
51321;BME280;38732;49.556;6.286;2023-02-19T11:14:23;100579.63;;;11.74;92.66
51321;BME280;38732;49.556;6.286;2023-02-19T11:16:55;100582.91;;;11.61;93.80
51321;BME280;38732;49.556;6.286;2023-02-19T11:19:30;100580.31;;;12.28;89.81
51321;BME280;38732;49.556;6.286;2023-02-19T11:22:38;100575.31;;;13.49;81.91
51321;BME280;38732;49.556;6.286;2023-02-19T11:25:17;100570.53;;;12.89;83.90
51321;BME280;38732;49.556;6.286;2023-02-19T11:28:05;100579.97;;;12.83;83.54
51321;BME280;38732;49.556;6.286;2023-02-19T11:30:39;100591.06;;;11.90;91.26
51321;BME280;38732;49.556;6.286;2023-02-19T11:35:45;100595.38;;;12.67;83.59
51321;BME280;38732;49.556;6.286;2023-02-19T11:38:16;100587.94;;;13.04;82.37
51321;BME280;38732;49.556;6.286;2023-02-19T11:41:18;100587.13;;;12.18;85.99
51321;BME280;38732;49.556;6.286;2023-02-19T11:46:42;100565.44;;;13.00;83.42
51321;BME280;38732;49.556;6.286;2023-02-19T11:52:11;100571.09;;;13.63;81.02
51321;BME280;38732;49.556;6.286;2023-02-19T11:54:53;100573.19;;;12.97;85.31
51321;BME280;38732;49.556;6.286;2023-02-19T11:57:37;100575.75;;;12.91;85.48
51321;BME280;38732;49.556;6.286;2023-02-19T12:00:18;100569.00;;;13.14;81.59
51321;BME280;38732;49.556;6.286;2023-02-19T12:06:07;100572.06;;;11.88;85.42
51321;BME280;38732;49.556;6.286;2023-02-19T12:14:31;100582.38;;;12.61;82.33
51321;BME280;38732;49.556;6.286;2023-02-19T12:17:08;100577.13;;;13.61;76.63
51321;BME280;38732;49.556;6.286;2023-02-19T12:20:03;100575.59;;;14.04;75.07
51321;BME280;38732;49.556;6.286;2023-02-19T12:25:55;100601.78;;;13.06;78.26
51321;BME280;38732;49.556;6.286;2023-02-19T12:28:53;100603.94;;;12.60;80.34
51321;BME280;38732;49.556;6.286;2023-02-19T12:37:16;100607.84;;;12.20;81.76
51321;BME280;38732;49.556;6.286;2023-02-19T12:45:19;100617.53;;;12.36;77.25
51321;BME280;38732;49.556;6.286;2023-02-19T12:48:02;100622.44;;;11.51;80.93
51321;BME280;38732;49.556;6.286;2023-02-19T12:50:34;100612.97;;;11.53;82.04
51321;BME280;38732;49.556;6.286;2023-02-19T12:55:43;100599.34;;;12.32;82.90
51321;BME280;38732;49.556;6.286;2023-02-19T12:58:44;100598.06;;;12.73;79.91
51321;BME280;38732;49.556;6.286;2023-02-19T13:01:22;100602.38;;;11.97;85.97
51321;BME280;38732;49.556;6.286;2023-02-19T13:04:21;100588.25;;;12.43;81.88
51321;BME280;38732;49.556;6.286;2023-02-19T13:07:03;100579.13;;;11.98;84.54
51321;BME280;38732;49.556;6.286;2023-02-19T13:09:39;100581.78;;;11.42;90.25
51321;BME280;38732;49.556;6.286;2023-02-19T13:12:28;100577.50;;;11.45;91.37
51321;BME280;38732;49.556;6.286;2023-02-19T13:15:03;100566.00;;;11.86;92.33
51321;BME280;38732;49.556;6.286;2023-02-19T13:17:44;100572.38;;;12.11;88.44
51321;BME280;38732;49.556;6.286;2023-02-19T13:20:19;100566.56;;;11.04;94.71
51321;BME280;38732;49.556;6.286;2023-02-19T13:23:00;100568.38;;;11.10;95.34
51321;BME280;38732;49.556;6.286;2023-02-19T13:25:48;100562.59;;;11.90;90.07
51321;BME280;38732;49.556;6.286;2023-02-19T13:28:45;100567.34;;;12.26;86.60
51321;BME280;38732;49.556;6.286;2023-02-19T13:34:42;100543.50;;;12.58;83.82
51321;BME280;38732;49.556;6.286;2023-02-19T13:37:14;100546.38;;;12.93;80.00
51321;BME280;38732;49.556;6.286;2023-02-19T13:39:47;100547.59;;;13.38;75.55
51321;BME280;38732;49.556;6.286;2023-02-19T13:42:32;100559.72;;;11.70;83.04
51321;BME280;38732;49.556;6.286;2023-02-19T13:45:03;100554.78;;;12.66;81.78
51321;BME280;38732;49.556;6.286;2023-02-19T13:47:57;100552.91;;;13.63;74.67
51321;BME280;38732;49.556;6.286;2023-02-19T13:52:58;100566.78;;;12.55;80.59
51321;BME280;38732;49.556;6.286;2023-02-19T14:01:04;100557.16;;;13.52;77.11
51321;BME280;38732;49.556;6.286;2023-02-19T14:06:04;100563.06;;;11.60;88.66
51321;BME280;38732;49.556;6.286;2023-02-19T14:08:50;100562.84;;;12.99;81.23
51321;BME280;38732;49.556;6.286;2023-02-19T14:14:34;100571.75;;;12.34;84.12
51321;BME280;38732;49.556;6.286;2023-02-19T14:17:22;100569.91;;;12.25;84.37
51321;BME280;38732;49.556;6.286;2023-02-19T14:28:13;100584.09;;;11.86;86.31
51321;BME280;38732;49.556;6.286;2023-02-19T14:30:53;100580.91;;;12.04;87.57
51321;BME280;38732;49.556;6.286;2023-02-19T14:33:33;100578.41;;;12.12;87.11
51321;BME280;38732;49.556;6.286;2023-02-19T14:36:41;100593.84;;;11.43;88.32
51321;BME280;38732;49.556;6.286;2023-02-19T14:39:23;100588.25;;;12.43;83.33
51321;BME280;38732;49.556;6.286;2023-02-19T14:41:56;100597.72;;;12.41;83.57
51321;BME280;38732;49.556;6.286;2023-02-19T14:44:31;100594.00;;;13.05;79.27
51321;BME280;38732;49.556;6.286;2023-02-19T14:47:07;100590.78;;;12.40;83.71
51321;BME280;38732;49.556;6.286;2023-02-19T14:49:54;100581.31;;;13.42;76.79
51321;BME280;38732;49.556;6.286;2023-02-19T14:52:29;100582.03;;;13.21;77.10
51321;BME280;38732;49.556;6.286;2023-02-19T14:55:14;100578.47;;;13.06;76.31